sensor_id;sensor_type;location;lat;lon;timestamp;temperature;humidity
61092;DHT22;46975;51.898;11.444;2022-11-13T00:01:29;2.80;99.90
61092;DHT22;46975;51.898;11.444;2022-11-13T00:03:57;2.70;99.90
61092;DHT22;46975;51.898;11.444;2022-11-13T00:06:23;2.80;99.90
61092;DHT22;46975;51.898;11.444;2022-11-13T00:08:53;2.70;99.90
61092;DHT22;46975;51.898;11.444;2022-11-13T00:11:19;2.80;99.90
61092;DHT22;46975;51.898;11.444;2022-11-13T00:13:46;2.70;99.90
61092;DHT22;46975;51.898;11.444;2022-11-13T00:16:15;2.80;99.90
61092;DHT22;46975;51.898;11.444;2022-11-13T00:18:40;2.80;99.90
61092;DHT22;46975;51.898;11.444;2022-11-13T00:21:08;2.80;99.90
61092;DHT22;46975;51.898;11.444;2022-11-13T00:23:35;2.70;99.90
61092;DHT22;46975;51.898;11.444;2022-11-13T00:26:11;2.60;99.90
61092;DHT22;46975;51.898;11.444;2022-11-13T00:28:37;2.50;99.90
61092;DHT22;46975;51.898;11.444;2022-11-13T00:31:04;2.50;99.90
61092;DHT22;46975;51.898;11.444;2022-11-13T00:33:30;2.40;99.90
61092;DHT22;46975;51.898;11.444;2022-11-13T00:36:23;2.40;99.90
61092;DHT22;46975;51.898;11.444;2022-11-13T00:38:50;2.30;99.90
61092;DHT22;46975;51.898;11.444;2022-11-13T00:41:15;2.30;99.90
61092;DHT22;46975;51.898;11.444;2022-11-13T00:43:43;2.30;99.90
61092;DHT22;46975;51.898;11.444;2022-11-13T00:46:08;2.30;99.90
61092;DHT22;46975;51.898;11.444;2022-11-13T00:48:35;2.30;99.90
61092;DHT22;46975;51.898;11.444;2022-11-13T00:51:01;2.20;99.90
61092;DHT22;46975;51.898;11.444;2022-11-13T00:53:27;2.30;99.90
61092;DHT22;46975;51.898;11.444;2022-11-13T00:55:53;2.30;99.90
61092;DHT22;46975;51.898;11.444;2022-11-13T00:58:19;2.30;99.90
61092;DHT22;46975;51.898;11.444;2022-11-13T01:00:46;2.30;99.90
61092;DHT22;46975;51.898;11.444;2022-11-13T01:03:13;2.40;99.90
61092;DHT22;46975;51.898;11.444;2022-11-13T01:05:41;2.50;99.90
61092;DHT22;46975;51.898;11.444;2022-11-13T01:08:08;2.60;99.90
61092;DHT22;46975;51.898;11.444;2022-11-13T01:10:39;2.70;99.90
61092;DHT22;46975;51.898;11.444;2022-11-13T01:13:04;2.80;99.90
61092;DHT22;46975;51.898;11.444;2022-11-13T01:15:30;2.90;99.90
61092;DHT22;46975;51.898;11.444;2022-11-13T01:17:56;2.90;99.90
61092;DHT22;46975;51.898;11.444;2022-11-13T01:20:23;2.90;99.90
61092;DHT22;46975;51.898;11.444;2022-11-13T01:22:49;2.70;99.90
61092;DHT22;46975;51.898;11.444;2022-11-13T01:25:15;2.70;99.90
61092;DHT22;46975;51.898;11.444;2022-11-13T01:27:41;2.80;99.90
61092;DHT22;46975;51.898;11.444;2022-11-13T01:30:07;2.80;99.90
61092;DHT22;46975;51.898;11.444;2022-11-13T01:32:33;2.70;99.90
61092;DHT22;46975;51.898;11.444;2022-11-13T01:34:59;2.70;99.90
61092;DHT22;46975;51.898;11.444;2022-11-13T01:37:24;2.80;99.90
61092;DHT22;46975;51.898;11.444;2022-11-13T01:39:50;2.90;99.90
61092;DHT22;46975;51.898;11.444;2022-11-13T01:42:15;2.90;99.90
61092;DHT22;46975;51.898;11.444;2022-11-13T01:44:53;2.90;99.90
61092;DHT22;46975;51.898;11.444;2022-11-13T01:47:21;3.00;99.90
61092;DHT22;46975;51.898;11.444;2022-11-13T01:49:48;3.00;99.90
61092;DHT22;46975;51.898;11.444;2022-11-13T01:52:25;3.00;99.90
61092;DHT22;46975;51.898;11.444;2022-11-13T01:55:02;3.00;99.90
61092;DHT22;46975;51.898;11.444;2022-11-13T01:57:28;3.00;99.90
61092;DHT22;46975;51.898;11.444;2022-11-13T02:00:02;3.00;99.90
61092;DHT22;46975;51.898;11.444;2022-11-13T02:02:28;3.00;99.90
61092;DHT22;46975;51.898;11.444;2022-11-13T02:04:55;3.00;99.90
61092;DHT22;46975;51.898;11.444;2022-11-13T02:07:21;3.00;99.90
61092;DHT22;46975;51.898;11.444;2022-11-13T02:09:49;3.00;99.90
61092;DHT22;46975;51.898;11.444;2022-11-13T02:12:37;3.10;99.90
61092;DHT22;46975;51.898;11.444;2022-11-13T02:15:06;3.20;99.90
61092;DHT22;46975;51.898;11.444;2022-11-13T02:17:57;3.10;99.90
61092;DHT22;46975;51.898;11.444;2022-11-13T02:20:34;3.10;99.90
61092;DHT22;46975;51.898;11.444;2022-11-13T02:23:07;3.10;99.90
61092;DHT22;46975;51.898;11.444;2022-11-13T02:25:34;3.10;99.90
61092;DHT22;46975;51.898;11.444;2022-11-13T02:28:00;3.10;99.90
61092;DHT22;46975;51.898;11.444;2022-11-13T02:30:28;3.10;99.90
61092;DHT22;46975;51.898;11.444;2022-11-13T02:32:55;3.10;99.90
61092;DHT22;46975;51.898;11.444;2022-11-13T02:35:28;3.10;99.90
61092;DHT22;46975;51.898;11.444;2022-11-13T02:37:55;3.10;99.90
61092;DHT22;46975;51.898;11.444;2022-11-13T02:40:22;3.10;99.90
61092;DHT22;46975;51.898;11.444;2022-11-13T02:42:48;3.10;99.90
61092;DHT22;46975;51.898;11.444;2022-11-13T02:45:14;3.10;99.90
61092;DHT22;46975;51.898;11.444;2022-11-13T02:47:40;3.20;99.90
61092;DHT22;46975;51.898;11.444;2022-11-13T02:53:12;3.10;99.90
61092;DHT22;46975;51.898;11.444;2022-11-13T02:55:37;3.10;99.90
61092;DHT22;46975;51.898;11.444;2022-11-13T02:58:03;3.10;99.90
61092;DHT22;46975;51.898;11.444;2022-11-13T03:00:29;3.10;99.90
61092;DHT22;46975;51.898;11.444;2022-11-13T03:02:54;3.00;99.90
61092;DHT22;46975;51.898;11.444;2022-11-13T03:05:21;3.10;99.90
61092;DHT22;46975;51.898;11.444;2022-11-13T03:07:47;3.00;99.90
61092;DHT22;46975;51.898;11.444;2022-11-13T03:10:12;3.10;99.90
61092;DHT22;46975;51.898;11.444;2022-11-13T03:12:38;3.00;99.90
61092;DHT22;46975;51.898;11.444;2022-11-13T03:15:06;2.90;99.90
61092;DHT22;46975;51.898;11.444;2022-11-13T03:17:32;2.90;99.90
61092;DHT22;46975;51.898;11.444;2022-11-13T03:19:58;3.00;99.90
61092;DHT22;46975;51.898;11.444;2022-11-13T03:22:24;3.00;99.90
61092;DHT22;46975;51.898;11.444;2022-11-13T03:24:50;2.90;99.90
61092;DHT22;46975;51.898;11.444;2022-11-13T03:27:15;2.90;99.90
61092;DHT22;46975;51.898;11.444;2022-11-13T03:29:41;2.90;99.90
61092;DHT22;46975;51.898;11.444;2022-11-13T03:32:07;3.00;99.90
61092;DHT22;46975;51.898;11.444;2022-11-13T03:34:32;2.90;99.90
61092;DHT22;46975;51.898;11.444;2022-11-13T03:36:58;2.90;99.90
61092;DHT22;46975;51.898;11.444;2022-11-13T03:39:24;2.90;99.90
61092;DHT22;46975;51.898;11.444;2022-11-13T03:41:49;2.90;99.90
61092;DHT22;46975;51.898;11.444;2022-11-13T03:44:15;2.90;99.90
61092;DHT22;46975;51.898;11.444;2022-11-13T03:46:41;2.90;99.90
61092;DHT22;46975;51.898;11.444;2022-11-13T03:49:06;2.90;99.90
61092;DHT22;46975;51.898;11.444;2022-11-13T03:51:32;3.00;99.90
61092;DHT22;46975;51.898;11.444;2022-11-13T03:53:58;2.90;99.90
61092;DHT22;46975;51.898;11.444;2022-11-13T03:56:24;2.90;99.90
61092;DHT22;46975;51.898;11.444;2022-11-13T03:58:50;2.80;99.90
61092;DHT22;46975;51.898;11.444;2022-11-13T04:01:16;2.90;99.90
61092;DHT22;46975;51.898;11.444;2022-11-13T04:03:42;2.80;99.90
61092;DHT22;46975;51.898;11.444;2022-11-13T04:06:08;2.80;99.90
61092;DHT22;46975;51.898;11.444;2022-11-13T04:08:34;2.80;99.90
61092;DHT22;46975;51.898;11.444;2022-11-13T04:11:10;2.70;99.90
61092;DHT22;46975;51.898;11.444;2022-11-13T04:13:37;2.80;99.90
61092;DHT22;46975;51.898;11.444;2022-11-13T04:16:03;2.70;99.90
61092;DHT22;46975;51.898;11.444;2022-11-13T04:18:29;2.70;99.90
61092;DHT22;46975;51.898;11.444;2022-11-13T04:21:03;2.70;99.90
61092;DHT22;46975;51.898;11.444;2022-11-13T04:23:29;2.70;99.90
61092;DHT22;46975;51.898;11.444;2022-11-13T04:25:55;2.70;99.90
61092;DHT22;46975;51.898;11.444;2022-11-13T04:28:21;2.70;99.90
61092;DHT22;46975;51.898;11.444;2022-11-13T04:30:47;2.70;99.90
61092;DHT22;46975;51.898;11.444;2022-11-13T04:33:14;2.70;99.90
61092;DHT22;46975;51.898;11.444;2022-11-13T04:35:39;2.60;99.90
61092;DHT22;46975;51.898;11.444;2022-11-13T04:38:10;2.60;99.90
61092;DHT22;46975;51.898;11.444;2022-11-13T04:40:36;2.60;99.90
61092;DHT22;46975;51.898;11.444;2022-11-13T04:43:02;2.60;99.90
61092;DHT22;46975;51.898;11.444;2022-11-13T04:45:28;2.70;99.90
61092;DHT22;46975;51.898;11.444;2022-11-13T04:47:53;2.70;99.90
61092;DHT22;46975;51.898;11.444;2022-11-13T04:50:19;2.60;99.90
61092;DHT22;46975;51.898;11.444;2022-11-13T04:52:45;2.70;99.90
61092;DHT22;46975;51.898;11.444;2022-11-13T04:55:11;2.70;99.90
61092;DHT22;46975;51.898;11.444;2022-11-13T04:57:37;2.70;99.90
61092;DHT22;46975;51.898;11.444;2022-11-13T05:00:05;2.60;99.90
61092;DHT22;46975;51.898;11.444;2022-11-13T05:02:31;2.60;99.90
61092;DHT22;46975;51.898;11.444;2022-11-13T05:04:57;2.60;99.90
61092;DHT22;46975;51.898;11.444;2022-11-13T05:07:22;2.60;99.90
61092;DHT22;46975;51.898;11.444;2022-11-13T05:09:48;2.60;99.90
61092;DHT22;46975;51.898;11.444;2022-11-13T05:12:14;2.60;99.90
61092;DHT22;46975;51.898;11.444;2022-11-13T05:14:40;2.60;99.90
61092;DHT22;46975;51.898;11.444;2022-11-13T05:17:07;2.70;99.90
61092;DHT22;46975;51.898;11.444;2022-11-13T05:19:34;2.70;99.90
61092;DHT22;46975;51.898;11.444;2022-11-13T05:21:59;2.70;99.90
61092;DHT22;46975;51.898;11.444;2022-11-13T05:24:25;2.70;99.90
61092;DHT22;46975;51.898;11.444;2022-11-13T05:26:51;2.70;99.90
61092;DHT22;46975;51.898;11.444;2022-11-13T05:29:17;2.70;99.90
61092;DHT22;46975;51.898;11.444;2022-11-13T05:31:43;2.80;99.90
61092;DHT22;46975;51.898;11.444;2022-11-13T05:34:09;2.80;99.90
61092;DHT22;46975;51.898;11.444;2022-11-13T05:36:34;2.90;99.90
61092;DHT22;46975;51.898;11.444;2022-11-13T05:39:00;2.80;99.90
61092;DHT22;46975;51.898;11.444;2022-11-13T05:41:26;2.80;99.90
61092;DHT22;46975;51.898;11.444;2022-11-13T05:43:52;2.80;99.90
61092;DHT22;46975;51.898;11.444;2022-11-13T05:46:24;2.80;99.90
61092;DHT22;46975;51.898;11.444;2022-11-13T05:48:57;2.80;99.90
61092;DHT22;46975;51.898;11.444;2022-11-13T05:51:27;2.80;99.90
61092;DHT22;46975;51.898;11.444;2022-11-13T05:53:53;2.80;99.90
61092;DHT22;46975;51.898;11.444;2022-11-13T05:56:24;2.90;99.90
61092;DHT22;46975;51.898;11.444;2022-11-13T05:58:52;2.80;99.90
61092;DHT22;46975;51.898;11.444;2022-11-13T06:01:19;2.80;99.90
61092;DHT22;46975;51.898;11.444;2022-11-13T06:03:45;2.70;99.90
61092;DHT22;46975;51.898;11.444;2022-11-13T06:06:14;2.70;99.90
61092;DHT22;46975;51.898;11.444;2022-11-13T06:08:40;2.80;99.90
61092;DHT22;46975;51.898;11.444;2022-11-13T06:11:09;2.80;99.90
61092;DHT22;46975;51.898;11.444;2022-11-13T06:13:34;2.80;99.90
61092;DHT22;46975;51.898;11.444;2022-11-13T06:16:02;2.80;99.90
61092;DHT22;46975;51.898;11.444;2022-11-13T06:18:28;2.90;99.90
61092;DHT22;46975;51.898;11.444;2022-11-13T06:20:54;2.90;99.90
61092;DHT22;46975;51.898;11.444;2022-11-13T06:23:19;2.80;99.90
61092;DHT22;46975;51.898;11.444;2022-11-13T06:25:46;2.90;99.90
61092;DHT22;46975;51.898;11.444;2022-11-13T06:28:11;2.90;99.90
61092;DHT22;46975;51.898;11.444;2022-11-13T06:30:37;2.90;99.90
61092;DHT22;46975;51.898;11.444;2022-11-13T06:33:03;2.90;99.90
61092;DHT22;46975;51.898;11.444;2022-11-13T06:35:29;2.90;99.90
61092;DHT22;46975;51.898;11.444;2022-11-13T06:37:54;2.80;99.90
61092;DHT22;46975;51.898;11.444;2022-11-13T06:40:20;2.90;99.90
61092;DHT22;46975;51.898;11.444;2022-11-13T06:42:46;2.90;99.90
61092;DHT22;46975;51.898;11.444;2022-11-13T06:45:12;2.80;99.90
61092;DHT22;46975;51.898;11.444;2022-11-13T06:47:37;2.90;99.90
61092;DHT22;46975;51.898;11.444;2022-11-13T06:50:03;2.90;99.90
61092;DHT22;46975;51.898;11.444;2022-11-13T06:52:29;2.80;99.90
61092;DHT22;46975;51.898;11.444;2022-11-13T06:54:55;2.80;99.90
61092;DHT22;46975;51.898;11.444;2022-11-13T06:57:21;2.90;99.90
61092;DHT22;46975;51.898;11.444;2022-11-13T06:59:47;2.80;99.90
61092;DHT22;46975;51.898;11.444;2022-11-13T07:02:12;2.90;99.90
61092;DHT22;46975;51.898;11.444;2022-11-13T07:04:39;2.90;99.90
61092;DHT22;46975;51.898;11.444;2022-11-13T07:07:04;2.90;99.90
61092;DHT22;46975;51.898;11.444;2022-11-13T07:09:30;2.90;99.90
61092;DHT22;46975;51.898;11.444;2022-11-13T07:11:56;2.90;99.90
61092;DHT22;46975;51.898;11.444;2022-11-13T07:14:22;3.00;99.90
61092;DHT22;46975;51.898;11.444;2022-11-13T07:16:47;3.00;99.90
61092;DHT22;46975;51.898;11.444;2022-11-13T07:19:13;3.10;99.90
61092;DHT22;46975;51.898;11.444;2022-11-13T07:21:39;3.10;99.90
61092;DHT22;46975;51.898;11.444;2022-11-13T07:24:05;3.20;99.90
61092;DHT22;46975;51.898;11.444;2022-11-13T07:26:30;3.20;99.90
61092;DHT22;46975;51.898;11.444;2022-11-13T07:28:56;3.20;99.90
61092;DHT22;46975;51.898;11.444;2022-11-13T07:31:22;3.20;99.90
61092;DHT22;46975;51.898;11.444;2022-11-13T07:33:49;3.20;99.90
61092;DHT22;46975;51.898;11.444;2022-11-13T07:36:16;3.20;99.90
61092;DHT22;46975;51.898;11.444;2022-11-13T07:38:41;3.20;99.90
61092;DHT22;46975;51.898;11.444;2022-11-13T07:41:07;3.30;99.90
61092;DHT22;46975;51.898;11.444;2022-11-13T07:43:33;3.30;99.90
61092;DHT22;46975;51.898;11.444;2022-11-13T07:46:00;3.40;99.90
61092;DHT22;46975;51.898;11.444;2022-11-13T07:48:26;3.40;99.90
61092;DHT22;46975;51.898;11.444;2022-11-13T07:50:52;3.50;99.90
61092;DHT22;46975;51.898;11.444;2022-11-13T07:53:20;3.50;99.90
61092;DHT22;46975;51.898;11.444;2022-11-13T07:55:46;3.50;99.90
61092;DHT22;46975;51.898;11.444;2022-11-13T07:58:12;3.60;99.90
61092;DHT22;46975;51.898;11.444;2022-11-13T08:00:38;3.60;99.90
61092;DHT22;46975;51.898;11.444;2022-11-13T08:03:12;3.70;99.90
61092;DHT22;46975;51.898;11.444;2022-11-13T08:05:38;3.60;99.90
61092;DHT22;46975;51.898;11.444;2022-11-13T08:08:04;3.60;99.90
61092;DHT22;46975;51.898;11.444;2022-11-13T08:10:31;3.70;99.90
61092;DHT22;46975;51.898;11.444;2022-11-13T08:12:59;3.70;99.90
61092;DHT22;46975;51.898;11.444;2022-11-13T08:15:26;3.60;99.90
61092;DHT22;46975;51.898;11.444;2022-11-13T08:17:56;3.70;99.90
61092;DHT22;46975;51.898;11.444;2022-11-13T08:20:23;3.70;99.90
61092;DHT22;46975;51.898;11.444;2022-11-13T08:22:49;3.70;99.90
61092;DHT22;46975;51.898;11.444;2022-11-13T08:25:15;3.80;99.90
61092;DHT22;46975;51.898;11.444;2022-11-13T08:27:41;3.90;99.90
61092;DHT22;46975;51.898;11.444;2022-11-13T08:30:07;3.90;99.90
61092;DHT22;46975;51.898;11.444;2022-11-13T08:32:33;4.00;99.90
61092;DHT22;46975;51.898;11.444;2022-11-13T08:34:59;4.00;99.90
61092;DHT22;46975;51.898;11.444;2022-11-13T08:37:24;4.10;99.90
61092;DHT22;46975;51.898;11.444;2022-11-13T08:39:50;4.00;99.90
61092;DHT22;46975;51.898;11.444;2022-11-13T08:42:15;4.10;99.90
61092;DHT22;46975;51.898;11.444;2022-11-13T08:44:41;4.20;99.90
61092;DHT22;46975;51.898;11.444;2022-11-13T08:47:07;4.20;99.90
61092;DHT22;46975;51.898;11.444;2022-11-13T08:49:32;4.20;99.90
61092;DHT22;46975;51.898;11.444;2022-11-13T08:51:58;4.30;99.90
61092;DHT22;46975;51.898;11.444;2022-11-13T08:54:24;4.30;99.90
61092;DHT22;46975;51.898;11.444;2022-11-13T08:56:49;4.30;99.90
61092;DHT22;46975;51.898;11.444;2022-11-13T08:59:15;4.30;99.90
61092;DHT22;46975;51.898;11.444;2022-11-13T09:01:41;4.40;99.90
61092;DHT22;46975;51.898;11.444;2022-11-13T09:04:07;4.50;99.90
61092;DHT22;46975;51.898;11.444;2022-11-13T09:06:33;4.50;99.90
61092;DHT22;46975;51.898;11.444;2022-11-13T09:08:59;4.50;99.90
61092;DHT22;46975;51.898;11.444;2022-11-13T09:11:24;4.60;99.90
61092;DHT22;46975;51.898;11.444;2022-11-13T09:13:53;4.60;99.90
61092;DHT22;46975;51.898;11.444;2022-11-13T09:16:19;4.70;99.90
61092;DHT22;46975;51.898;11.444;2022-11-13T09:18:49;4.70;99.90
61092;DHT22;46975;51.898;11.444;2022-11-13T09:21:15;4.80;99.90
61092;DHT22;46975;51.898;11.444;2022-11-13T09:23:41;4.90;99.90
61092;DHT22;46975;51.898;11.444;2022-11-13T09:26:07;4.90;99.90
61092;DHT22;46975;51.898;11.444;2022-11-13T09:28:32;5.10;99.90
61092;DHT22;46975;51.898;11.444;2022-11-13T09:30:58;5.10;99.90
61092;DHT22;46975;51.898;11.444;2022-11-13T09:33:24;5.20;99.90
61092;DHT22;46975;51.898;11.444;2022-11-13T09:35:49;5.20;99.90
61092;DHT22;46975;51.898;11.444;2022-11-13T09:38:15;5.30;99.90
61092;DHT22;46975;51.898;11.444;2022-11-13T09:40:54;5.40;99.90
61092;DHT22;46975;51.898;11.444;2022-11-13T09:45:51;5.50;99.90
61092;DHT22;46975;51.898;11.444;2022-11-13T09:48:34;5.60;99.90
61092;DHT22;46975;51.898;11.444;2022-11-13T09:51:12;5.70;99.90
61092;DHT22;46975;51.898;11.444;2022-11-13T09:53:39;5.80;99.90
61092;DHT22;46975;51.898;11.444;2022-11-13T09:56:22;5.80;99.90
61092;DHT22;46975;51.898;11.444;2022-11-13T09:58:54;5.90;99.90
61092;DHT22;46975;51.898;11.444;2022-11-13T10:01:33;6.00;99.90
61092;DHT22;46975;51.898;11.444;2022-11-13T10:04:06;6.10;99.90
61092;DHT22;46975;51.898;11.444;2022-11-13T10:09:44;6.20;99.90
61092;DHT22;46975;51.898;11.444;2022-11-13T10:12:15;6.30;99.90
61092;DHT22;46975;51.898;11.444;2022-11-13T10:14:52;6.30;99.90
61092;DHT22;46975;51.898;11.444;2022-11-13T10:20:00;6.40;99.90
61092;DHT22;46975;51.898;11.444;2022-11-13T10:25:20;6.50;99.90
61092;DHT22;46975;51.898;11.444;2022-11-13T10:30:19;6.50;99.90
61092;DHT22;46975;51.898;11.444;2022-11-13T10:32:46;6.60;99.90
61092;DHT22;46975;51.898;11.444;2022-11-13T10:40:33;6.70;99.90
61092;DHT22;46975;51.898;11.444;2022-11-13T10:45:40;6.80;99.90
61092;DHT22;46975;51.898;11.444;2022-11-13T10:48:21;6.80;99.90
61092;DHT22;46975;51.898;11.444;2022-11-13T10:50:59;6.90;99.90
61092;DHT22;46975;51.898;11.444;2022-11-13T10:53:27;7.00;99.90
61092;DHT22;46975;51.898;11.444;2022-11-13T10:55:56;7.00;99.90
61092;DHT22;46975;51.898;11.444;2022-11-13T10:58:23;6.90;99.90
61092;DHT22;46975;51.898;11.444;2022-11-13T11:00:49;7.00;99.90
61092;DHT22;46975;51.898;11.444;2022-11-13T11:03:23;7.00;99.90
61092;DHT22;46975;51.898;11.444;2022-11-13T11:05:58;7.20;99.90
61092;DHT22;46975;51.898;11.444;2022-11-13T11:08:32;7.20;99.90
61092;DHT22;46975;51.898;11.444;2022-11-13T11:11:15;7.10;99.90
61092;DHT22;46975;51.898;11.444;2022-11-13T11:14:21;7.10;99.90
61092;DHT22;46975;51.898;11.444;2022-11-13T11:16:49;7.10;99.90
61092;DHT22;46975;51.898;11.444;2022-11-13T11:19:18;7.10;99.90
61092;DHT22;46975;51.898;11.444;2022-11-13T11:21:48;7.10;99.90
61092;DHT22;46975;51.898;11.444;2022-11-13T11:24:21;7.10;99.90
61092;DHT22;46975;51.898;11.444;2022-11-13T11:30:03;7.10;99.90
61092;DHT22;46975;51.898;11.444;2022-11-13T11:32:42;7.00;99.90
61092;DHT22;46975;51.898;11.444;2022-11-13T11:35:19;7.00;99.90
61092;DHT22;46975;51.898;11.444;2022-11-13T11:38:10;7.10;99.90
61092;DHT22;46975;51.898;11.444;2022-11-13T11:40:44;7.10;99.90
61092;DHT22;46975;51.898;11.444;2022-11-13T11:45:46;7.10;99.90
61092;DHT22;46975;51.898;11.444;2022-11-13T11:48:21;7.20;99.90
61092;DHT22;46975;51.898;11.444;2022-11-13T11:53:45;7.00;99.90
61092;DHT22;46975;51.898;11.444;2022-11-13T12:05:00;7.00;99.90
61092;DHT22;46975;51.898;11.444;2022-11-13T12:15:57;6.90;99.90
61092;DHT22;46975;51.898;11.444;2022-11-13T12:18:50;6.90;99.90
61092;DHT22;46975;51.898;11.444;2022-11-13T12:21:26;6.90;99.90
61092;DHT22;46975;51.898;11.444;2022-11-13T12:27:47;7.00;99.90
61092;DHT22;46975;51.898;11.444;2022-11-13T12:30:10;6.90;99.90
61092;DHT22;46975;51.898;11.444;2022-11-13T12:35:20;7.00;99.90
61092;DHT22;46975;51.898;11.444;2022-11-13T12:40:48;6.90;99.90
61092;DHT22;46975;51.898;11.444;2022-11-13T12:43:27;6.90;99.90
61092;DHT22;46975;51.898;11.444;2022-11-13T12:46:07;7.00;99.90
61092;DHT22;46975;51.898;11.444;2022-11-13T12:48:35;7.10;99.90
61092;DHT22;46975;51.898;11.444;2022-11-13T12:51:07;7.10;99.90
61092;DHT22;46975;51.898;11.444;2022-11-13T12:53:52;7.10;99.90
61092;DHT22;46975;51.898;11.444;2022-11-13T13:10:56;7.10;99.90
61092;DHT22;46975;51.898;11.444;2022-11-13T13:16:25;7.10;99.90
61092;DHT22;46975;51.898;11.444;2022-11-13T13:18:51;7.10;99.90
61092;DHT22;46975;51.898;11.444;2022-11-13T13:21:18;7.20;99.90
61092;DHT22;46975;51.898;11.444;2022-11-13T13:23:47;7.20;99.90
61092;DHT22;46975;51.898;11.444;2022-11-13T13:28:46;7.20;99.90
61092;DHT22;46975;51.898;11.444;2022-11-13T13:31:35;7.20;99.90
61092;DHT22;46975;51.898;11.444;2022-11-13T13:46:03;7.20;99.90
61092;DHT22;46975;51.898;11.444;2022-11-13T13:48:30;7.20;99.90
61092;DHT22;46975;51.898;11.444;2022-11-13T13:50:57;7.20;99.90
61092;DHT22;46975;51.898;11.444;2022-11-13T13:53:28;7.20;99.90
61092;DHT22;46975;51.898;11.444;2022-11-13T13:55:55;7.30;99.90
61092;DHT22;46975;51.898;11.444;2022-11-13T13:58:42;7.20;99.90
61092;DHT22;46975;51.898;11.444;2022-11-13T14:01:13;7.30;99.90
61092;DHT22;46975;51.898;11.444;2022-11-13T14:03:39;7.30;99.90
61092;DHT22;46975;51.898;11.444;2022-11-13T14:06:34;7.20;99.90
61092;DHT22;46975;51.898;11.444;2022-11-13T14:09:09;7.30;99.90
61092;DHT22;46975;51.898;11.444;2022-11-13T14:11:35;7.30;99.90
61092;DHT22;46975;51.898;11.444;2022-11-13T14:14:20;7.30;99.90
61092;DHT22;46975;51.898;11.444;2022-11-13T14:16:50;7.20;99.90
61092;DHT22;46975;51.898;11.444;2022-11-13T14:19:17;7.20;99.90
61092;DHT22;46975;51.898;11.444;2022-11-13T14:21:45;7.20;99.90
61092;DHT22;46975;51.898;11.444;2022-11-13T14:24:30;7.20;99.90
61092;DHT22;46975;51.898;11.444;2022-11-13T14:27:05;7.20;99.90
61092;DHT22;46975;51.898;11.444;2022-11-13T14:29:51;7.20;99.90
61092;DHT22;46975;51.898;11.444;2022-11-13T14:32:21;7.20;99.90
61092;DHT22;46975;51.898;11.444;2022-11-13T14:34:51;7.20;99.90
61092;DHT22;46975;51.898;11.444;2022-11-13T14:39:51;7.30;99.90
61092;DHT22;46975;51.898;11.444;2022-11-13T14:43:05;7.20;99.90
61092;DHT22;46975;51.898;11.444;2022-11-13T14:45:19;7.30;99.90
61092;DHT22;46975;51.898;11.444;2022-11-13T14:50:57;7.30;99.90
61092;DHT22;46975;51.898;11.444;2022-11-13T14:53:30;7.30;99.90
61092;DHT22;46975;51.898;11.444;2022-11-13T14:55:59;7.20;99.90
61092;DHT22;46975;51.898;11.444;2022-11-13T14:58:34;7.30;99.90
61092;DHT22;46975;51.898;11.444;2022-11-13T15:01:20;7.30;99.90
61092;DHT22;46975;51.898;11.444;2022-11-13T15:03:47;7.30;99.90
61092;DHT22;46975;51.898;11.444;2022-11-13T15:06:14;7.30;99.90
61092;DHT22;46975;51.898;11.444;2022-11-13T15:08:40;7.30;99.90
61092;DHT22;46975;51.898;11.444;2022-11-13T15:11:11;7.30;99.90
61092;DHT22;46975;51.898;11.444;2022-11-13T15:13:37;7.30;99.90
61092;DHT22;46975;51.898;11.444;2022-11-13T15:16:04;7.40;99.90
61092;DHT22;46975;51.898;11.444;2022-11-13T15:18:29;7.40;99.90
61092;DHT22;46975;51.898;11.444;2022-11-13T15:20:56;7.30;99.90
61092;DHT22;46975;51.898;11.444;2022-11-13T15:23:24;7.30;99.90
61092;DHT22;46975;51.898;11.444;2022-11-13T15:25:50;7.30;99.90
61092;DHT22;46975;51.898;11.444;2022-11-13T15:28:16;7.20;99.90
61092;DHT22;46975;51.898;11.444;2022-11-13T15:30:42;7.10;99.90
61092;DHT22;46975;51.898;11.444;2022-11-13T15:33:14;7.10;99.90
61092;DHT22;46975;51.898;11.444;2022-11-13T15:35:41;7.00;99.90
61092;DHT22;46975;51.898;11.444;2022-11-13T15:38:08;6.90;99.90
61092;DHT22;46975;51.898;11.444;2022-11-13T15:40:35;6.80;99.90
61092;DHT22;46975;51.898;11.444;2022-11-13T15:43:01;6.60;99.90
61092;DHT22;46975;51.898;11.444;2022-11-13T15:45:27;6.50;99.90
61092;DHT22;46975;51.898;11.444;2022-11-13T15:47:52;6.40;99.90
61092;DHT22;46975;51.898;11.444;2022-11-13T15:50:18;6.30;99.90
61092;DHT22;46975;51.898;11.444;2022-11-13T15:52:46;6.10;99.90
61092;DHT22;46975;51.898;11.444;2022-11-13T15:55:31;6.10;99.90
61092;DHT22;46975;51.898;11.444;2022-11-13T15:57:57;5.90;99.90
61092;DHT22;46975;51.898;11.444;2022-11-13T16:00:26;5.80;99.90
61092;DHT22;46975;51.898;11.444;2022-11-13T16:02:55;5.80;99.90
61092;DHT22;46975;51.898;11.444;2022-11-13T16:05:23;5.70;99.90
61092;DHT22;46975;51.898;11.444;2022-11-13T16:07:50;5.60;99.90
61092;DHT22;46975;51.898;11.444;2022-11-13T16:10:16;5.50;99.90
61092;DHT22;46975;51.898;11.444;2022-11-13T16:12:42;5.40;99.90
61092;DHT22;46975;51.898;11.444;2022-11-13T16:15:15;5.40;99.90
61092;DHT22;46975;51.898;11.444;2022-11-13T16:17:43;5.30;99.90
61092;DHT22;46975;51.898;11.444;2022-11-13T16:20:11;5.30;99.90
61092;DHT22;46975;51.898;11.444;2022-11-13T16:22:37;5.20;99.90
61092;DHT22;46975;51.898;11.444;2022-11-13T16:25:03;5.20;99.90
61092;DHT22;46975;51.898;11.444;2022-11-13T16:27:30;5.20;99.90
61092;DHT22;46975;51.898;11.444;2022-11-13T16:29:58;5.10;99.90
61092;DHT22;46975;51.898;11.444;2022-11-13T16:32:24;5.10;99.90
61092;DHT22;46975;51.898;11.444;2022-11-13T16:34:49;5.00;99.90
61092;DHT22;46975;51.898;11.444;2022-11-13T16:37:20;5.00;99.90
61092;DHT22;46975;51.898;11.444;2022-11-13T16:39:46;4.90;99.90
61092;DHT22;46975;51.898;11.444;2022-11-13T16:42:13;4.80;99.90
61092;DHT22;46975;51.898;11.444;2022-11-13T16:44:39;4.80;99.90
61092;DHT22;46975;51.898;11.444;2022-11-13T16:47:06;4.80;99.90
61092;DHT22;46975;51.898;11.444;2022-11-13T16:49:34;4.70;99.90
61092;DHT22;46975;51.898;11.444;2022-11-13T16:51:59;4.60;99.90
61092;DHT22;46975;51.898;11.444;2022-11-13T16:54:25;4.60;99.90
61092;DHT22;46975;51.898;11.444;2022-11-13T16:56:51;4.60;99.90
61092;DHT22;46975;51.898;11.444;2022-11-13T16:59:16;4.50;99.90
61092;DHT22;46975;51.898;11.444;2022-11-13T17:01:42;4.40;99.90
61092;DHT22;46975;51.898;11.444;2022-11-13T17:04:12;4.40;99.90
61092;DHT22;46975;51.898;11.444;2022-11-13T17:06:38;4.40;99.90
61092;DHT22;46975;51.898;11.444;2022-11-13T17:09:04;4.30;99.90
61092;DHT22;46975;51.898;11.444;2022-11-13T17:11:31;4.40;99.90
61092;DHT22;46975;51.898;11.444;2022-11-13T17:13:58;4.40;99.90
61092;DHT22;46975;51.898;11.444;2022-11-13T17:16:26;4.30;99.90